Calicut Airport
VOCL : now visible

Airfield :











YOU CAN JOIN US ON...

 
LOGIN :

Register | Disclaimer

   EN    FR    IT 

 









Legend :    VFR   Marginal VFR   IFR   Intensive IFR   Very Intensive IFR
Visi :
Ceiling :
>= 8 km
>= 3000ft
5 to 8 km
1000 to 3000 ft
1500m to 5 km
500 to 1000 ft
800 to 1500m
200 to 500 ft
< 800m
< 200 ft
Symbols :   Thunderstorms  Fog  Heavy snow  Heavy precipitations  Wind > 20 kt






- Airport Elevation : 342 ft
- IATA code : CCJ


VOCL - Calicut

CURRENT METAR :
  • 251200Z 29007KT 6000 FEW015 30/20 Q1009 NOSIG

EXPIRED METARs :
  • 251130Z 27007KT 6000 FEW015 31/21 Q1009 NOSIG
  • 251100Z 25007KT 6000 FEW015 32/21 Q1009 NOSIG
  • 251030Z 25007KT 6000 FEW015 32/21 Q1009 NOSIG
  • 251000Z 27009KT 6000 FEW015 32/21 Q1009 NOSIG
  • 250930Z 25009KT 6000 FEW015 32/21 Q1009 NOSIG

TAF TAF VOCL
Valid from the 25 at 12:00 until the 26 at 18:00 UTC


251100Z 2512/2618 25005KT 6000 FEW015
BECMG 2517/2518 VRB03KT 5000 HZ FEW015 SCT080
BECMG 2518/2519 4000 HZ
BECMG 2523/2601 08005KT 2500 BR/-RA SCT010 SCT015
BECMG 2603/2604 5000 HZ FEW015
BECMG 2605/2606 6000
BECMG 2614/2615 29005KT 5000 HZ
BECMG 2616/2617 4000 HZ FEW015



MET'MAP, your aeronautical weather chart ! - Copyright ORBIFLY December 2007 - Disclaimer

ORBIFLY MET'MAP TEAM :

Programming & Development : Alexandra Zaïnal
Concept & original design : Baudouin d'Aumeries
Assistance for programming : Marc-Olivier Méhu
Technical & hardware support : Manuel Goepfert

Contact : metmap@orbifly.com




SOURCES & CREDITS :

   NOAA       Earth
Advisory